Time;durP1;ratioP1;P1;durP2;ratioP2;P2;SDS_P1;SDS_P2;PMS_P1;PMS_P2;Temp;Humidity;BMP_temperature;BMP_pressure;BME280_temperature;BME280_humidity;BME280_pressure;Samples;Min_cycle;Max_cycle;Signal;HPM_P1;HPM_P2
2024/03/12 00:07:35;;;;;;;;;;;5.20;99.90;;;;;;21047937;28;19917;-80
2024/03/12 00:17:39;;;;;;;;;;;5.40;99.90;;;;;;21047007;28;19988;-80
2024/03/12 00:27:40;;;;;;;;;;;5.10;99.90;;;;;;21037096;28;19927;-79
2024/03/12 00:37:47;;;;;;;;;;;5.10;99.90;;;;;;21036236;28;19912;-80
2024/03/12 00:47:47;;;;;;;;;;;5.20;99.90;;;;;;21045531;28;19916;-79
2024/03/12 00:57:48;;;;;;;;;;;4.90;99.90;;;;;;21049900;28;20418;-79
2024/03/12 01:07:49;;;;;;;;;;;4.60;99.90;;;;;;21050229;28;19937;-79
2024/03/12 01:17:50;;;;;;;;;;;4.70;99.90;;;;;;21088641;28;19942;-75
2024/03/12 01:27:55;;;;;;;;;;;4.90;99.90;;;;;;21140430;28;19925;-76
2024/03/12 01:37:58;;;;;;;;;;;5.10;99.90;;;;;;21119094;28;19916;-79
2024/03/12 01:48:09;;;;;;;;;;;5.20;99.90;;;;;;21055488;28;19927;-77
2024/03/12 01:58:12;;;;;;;;;;;5.30;99.90;;;;;;21050128;28;19991;-80
2024/03/12 02:08:14;;;;;;;;;;;5.40;99.90;;;;;;21048666;28;19939;-78
2024/03/12 02:18:14;;;;;;;;;;;5.30;99.90;;;;;;21060103;28;19916;-81
2024/03/12 02:28:17;;;;;;;;;;;5.30;99.90;;;;;;21047483;28;20311;-80
2024/03/12 02:38:18;;;;;;;;;;;5.20;99.90;;;;;;21061595;28;19912;-79
2024/03/12 02:48:19;;;;;;;;;;;5.00;99.90;;;;;;21057156;28;19920;-79
2024/03/12 02:58:25;;;;;;;;;;;5.10;99.90;;;;;;21055536;28;19913;-79
2024/03/12 03:08:27;;;;;;;;;;;5.30;99.90;;;;;;21042260;28;19916;-80
2024/03/12 03:18:29;;;;;;;;;;;5.20;99.90;;;;;;21043874;28;20149;-78
2024/03/12 03:28:30;;;;;;;;;;;5.20;99.90;;;;;;21045599;28;19951;-78
2024/03/12 03:38:31;;;;;;;;;;;5.20;99.90;;;;;;21051130;28;19912;-80
2024/03/12 03:48:31;;;;;;;;;;;5.30;99.90;;;;;;21037243;28;19920;-79
2024/03/12 03:58:32;;;;;;;;;;;5.40;99.90;;;;;;21046728;28;19916;-81
2024/03/12 04:08:33;;;;;;;;;;;5.40;99.90;;;;;;21044422;28;19959;-79
2024/03/12 04:18:34;;;;;;;;;;;5.30;99.90;;;;;;21037280;28;19916;-80
2024/03/12 04:28:37;;;;;;;;;;;5.40;99.90;;;;;;21030729;28;19916;-81
2024/03/12 04:38:38;;;;;;;;;;;5.20;99.90;;;;;;21058299;28;20382;-79
2024/03/12 04:48:39;;;;;;;;;;;5.10;99.90;;;;;;21056121;28;19917;-81
2024/03/12 04:58:39;;;;;;;;;;;4.90;99.90;;;;;;21067892;28;19943;-81
2024/03/12 05:08:40;;;;;;;;;;;4.70;99.90;;;;;;21048786;28;19916;-80
2024/03/12 05:18:40;;;;;;;;;;;4.90;99.90;;;;;;21058762;28;20003;-79
2024/03/12 05:28:41;;;;;;;;;;;4.90;99.90;;;;;;21042691;28;19934;-80
2024/03/12 05:38:54;;;;;;;;;;;5.10;99.90;;;;;;21074837;28;19912;-79
2024/03/12 05:48:55;;;;;;;;;;;5.10;99.90;;;;;;21085481;28;19991;-81
2024/03/12 05:58:56;;;;;;;;;;;5.10;99.90;;;;;;21063426;28;19958;-81
2024/03/12 06:08:56;;;;;;;;;;;5.10;99.90;;;;;;21051543;28;19924;-80
2024/03/12 06:18:57;;;;;;;;;;;5.20;99.90;;;;;;21062276;28;19919;-78
2024/03/12 06:28:58;;;;;;;;;;;5.30;99.90;;;;;;21058610;28;19917;-79
2024/03/12 06:38:59;;;;;;;;;;;5.40;99.90;;;;;;21094132;28;19912;-78
2024/03/12 06:49:00;;;;;;;;;;;5.50;99.90;;;;;;21117066;28;19916;-79
2024/03/12 06:59:00;;;;;;;;;;;5.50;99.90;;;;;;21085845;28;20417;-79
2024/03/12 07:09:04;;;;;;;;;;;5.60;99.90;;;;;;21085558;28;19916;-78
2024/03/12 07:19:05;;;;;;;;;;;5.70;99.90;;;;;;21076189;28;19912;-79
2024/03/12 07:29:06;;;;;;;;;;;5.80;99.90;;;;;;21082097;28;19923;-79
2024/03/12 07:39:24;;;;;;;;;;;5.90;99.90;;;;;;21102795;28;19912;-80
2024/03/12 07:49:25;;;;;;;;;;;6.10;99.90;;;;;;21105481;28;19916;-81
2024/03/12 07:59:28;;;;;;;;;;;6.20;99.90;;;;;;21094347;28;20398;-81
2024/03/12 08:09:29;;;;;;;;;;;6.10;99.90;;;;;;21111266;28;19955;-80
2024/03/12 08:19:29;;;;;;;;;;;6.10;99.90;;;;;;21077486;28;20294;-79
2024/03/12 08:29:30;;;;;;;;;;;6.20;99.90;;;;;;21090241;28;19916;-82
2024/03/12 08:39:31;;;;;;;;;;;6.20;99.90;;;;;;21054284;28;19912;-84
2024/03/12 08:49:33;;;;;;;;;;;6.30;99.90;;;;;;21065523;28;20319;-82
2024/03/12 08:59:34;;;;;;;;;;;6.30;99.90;;;;;;21052620;28;20335;-81
2024/03/12 09:09:35;;;;;;;;;;;6.60;99.90;;;;;;21068697;28;19916;-82
2024/03/12 09:19:36;;;;;;;;;;;6.90;99.90;;;;;;21068073;28;19913;-79
2024/03/12 09:29:39;;;;;;;;;;;7.00;99.90;;;;;;21064894;28;19919;-83
2024/03/12 09:39:39;;;;;;;;;;;7.30;99.90;;;;;;21103798;28;20006;-81
2024/03/12 09:49:40;;;;;;;;;;;7.40;99.90;;;;;;21110691;28;19912;-81
2024/03/12 09:59:41;;;;;;;;;;;7.60;99.90;;;;;;21119650;28;19959;-79
2024/03/12 10:09:41;;;;;;;;;;;8.20;99.90;;;;;;21116471;28;19923;-78
2024/03/12 10:19:51;;;;;;;;;;;8.20;99.90;;;;;;21103099;28;19975;-81
2024/03/12 10:29:52;;;;;;;;;;;8.00;99.90;;;;;;21085317;28;19972;-80
2024/03/12 10:39:53;;;;;;;;;;;8.10;99.90;;;;;;21074358;28;19916;-77
2024/03/12 10:49:54;;;;;;;;;;;7.60;99.90;;;;;;21076209;28;19912;-78
2024/03/12 10:59:58;;;;;;;;;;;7.80;99.90;;;;;;21046315;28;19918;-78
2024/03/12 11:09:59;;;;;;;;;;;7.60;99.90;;;;;;21030893;28;19923;-78
2024/03/12 11:20:01;;;;;;;;;;;7.40;99.90;;;;;;21034505;28;19959;-78
2024/03/12 11:30:04;;;;;;;;;;;7.10;99.90;;;;;;21041854;28;19913;-79
2024/03/12 11:40:23;;;;;;;;;;;7.00;99.90;;;;;;21032028;28;19916;-77
2024/03/12 11:50:33;;;;;;;;;;;7.00;99.90;;;;;;21025920;28;19913;-79
2024/03/12 12:00:35;;;;;;;;;;;7.20;99.90;;;;;;21015112;28;19916;-80
2024/03/12 12:10:36;;;;;;;;;;;7.30;99.90;;;;;;21031376;28;19962;-80
2024/03/12 12:20:37;;;;;;;;;;;7.50;99.90;;;;;;21035728;28;19916;-80
2024/03/12 12:30:38;;;;;;;;;;;7.50;99.90;;;;;;21030557;28;19919;-78
2024/03/12 12:40:39;;;;;;;;;;;7.80;99.90;;;;;;21013660;28;19923;-78
2024/03/12 12:50:40;;;;;;;;;;;7.90;99.90;;;;;;20994177;28;20348;-77
2024/03/12 13:00:43;;;;;;;;;;;7.80;99.90;;;;;;21042467;28;19963;-77
2024/03/12 13:10:53;;;;;;;;;;;7.90;99.90;;;;;;21046336;28;19967;-77
2024/03/12 13:20:54;;;;;;;;;;;7.70;99.90;;;;;;21070617;28;19959;-78
2024/03/12 13:30:56;;;;;;;;;;;7.80;99.90;;;;;;21049480;28;19912;-77
2024/03/12 13:40:56;;;;;;;;;;;7.90;99.90;;;;;;21022279;28;19916;-77
2024/03/12 13:50:58;;;;;;;;;;;8.00;99.90;;;;;;21019937;28;19995;-77
2024/03/12 14:00:59;;;;;;;;;;;8.10;99.90;;;;;;21029617;28;19917;-77
2024/03/12 14:11:00;;;;;;;;;;;8.30;99.90;;;;;;21039756;28;20003;-77
2024/03/12 14:21:01;;;;;;;;;;;8.30;99.90;;;;;;21028329;28;19927;-77
2024/03/12 14:31:02;;;;;;;;;;;8.30;99.90;;;;;;21019676;28;20291;-79
2024/03/12 14:41:05;;;;;;;;;;;8.30;99.90;;;;;;21041639;28;19927;-78
2024/03/12 14:51:06;;;;;;;;;;;8.30;99.90;;;;;;21047908;28;19913;-79
2024/03/12 15:01:09;;;;;;;;;;;8.20;99.90;;;;;;21034050;28;19920;-79
2024/03/12 15:11:11;;;;;;;;;;;8.20;99.90;;;;;;21044676;28;19972;-79
2024/03/12 15:21:11;;;;;;;;;;;8.30;99.90;;;;;;21068063;28;19917;-80
2024/03/12 15:31:12;;;;;;;;;;;8.40;99.90;;;;;;21030840;28;19991;-77
2024/03/12 15:41:13;;;;;;;;;;;8.60;99.90;;;;;;21019835;28;20566;-77
2024/03/12 15:51:13;;;;;;;;;;;8.80;99.90;;;;;;21012370;28;19964;-77
2024/03/12 16:01:14;;;;;;;;;;;8.80;99.90;;;;;;21022873;28;19924;-77
2024/03/12 16:11:16;;;;;;;;;;;8.60;99.90;;;;;;21012784;28;20500;-77
2024/03/12 16:21:17;;;;;;;;;;;8.60;99.90;;;;;;21030863;28;19920;-78
2024/03/12 16:31:18;;;;;;;;;;;8.50;99.90;;;;;;21019833;28;19920;-78
2024/03/12 16:41:19;;;;;;;;;;;8.60;99.90;;;;;;21018488;28;19923;-79
2024/03/12 16:51:19;;;;;;;;;;;8.60;99.90;;;;;;21036748;28;20372;-78
2024/03/12 17:01:21;;;;;;;;;;;8.50;99.90;;;;;;21056889;28;19923;-78
2024/03/12 17:11:23;;;;;;;;;;;8.40;99.90;;;;;;21042151;28;19917;-79
2024/03/12 17:21:28;;;;;;;;;;;8.30;99.90;;;;;;21054602;28;20051;-78
2024/03/12 17:31:29;;;;;;;;;;;8.20;99.90;;;;;;21035049;28;19912;-79
2024/03/12 17:41:29;;;;;;;;;;;8.10;99.90;;;;;;21065440;28;19939;-78
2024/03/12 17:51:31;;;;;;;;;;;8.00;99.90;;;;;;21041921;28;19918;-79
2024/03/12 18:01:31;;;;;;;;;;;7.80;99.90;;;;;;21062378;28;19916;-79
2024/03/12 18:11:32;;;;;;;;;;;7.80;99.90;;;;;;21039653;28;20421;-78
2024/03/12 18:21:33;;;;;;;;;;;7.50;99.90;;;;;;21047922;28;20290;-80
2024/03/12 18:31:33;;;;;;;;;;;7.50;99.90;;;;;;21048752;28;19916;-79
2024/03/12 18:41:34;;;;;;;;;;;7.30;99.90;;;;;;21052167;28;19924;-79
2024/03/12 18:51:35;;;;;;;;;;;7.10;99.90;;;;;;21045466;28;20008;-77
2024/03/12 19:01:36;;;;;;;;;;;7.20;99.90;;;;;;21076299;28;20307;-78
2024/03/12 19:11:37;;;;;;;;;;;7.20;99.90;;;;;;21029047;28;20032;-78
2024/03/12 19:21:38;;;;;;;;;;;7.20;99.90;;;;;;21032143;28;20405;-77
2024/03/12 19:31:39;;;;;;;;;;;7.10;99.90;;;;;;21020412;28;20317;-77
2024/03/12 19:41:44;;;;;;;;;;;7.00;99.90;;;;;;21026108;28;19924;-78
2024/03/12 19:51:47;;;;;;;;;;;6.80;99.90;;;;;;21000623;28;20294;-78
2024/03/12 20:01:47;;;;;;;;;;;6.70;99.90;;;;;;20998140;28;19917;-77
2024/03/12 20:11:50;;;;;;;;;;;6.70;99.90;;;;;;21041675;28;20358;-78
2024/03/12 20:21:50;;;;;;;;;;;6.60;99.90;;;;;;21010003;28;20299;-78
2024/03/12 20:31:51;;;;;;;;;;;6.60;99.90;;;;;;21011093;28;19912;-78
2024/03/12 20:41:52;;;;;;;;;;;6.50;99.90;;;;;;21042477;28;19970;-80
2024/03/12 20:51:52;;;;;;;;;;;6.50;99.90;;;;;;21034615;28;20334;-79
2024/03/12 21:01:53;;;;;;;;;;;6.50;99.90;;;;;;21032867;28;19920;-79
2024/03/12 21:11:57;;;;;;;;;;;6.40;99.90;;;;;;21041548;28;19943;-79
2024/03/12 21:22:01;;;;;;;;;;;6.40;99.90;;;;;;21057420;28;20023;-79
2024/03/12 21:32:02;;;;;;;;;;;6.50;99.90;;;;;;21052835;28;19912;-79
2024/03/12 21:42:05;;;;;;;;;;;6.40;99.90;;;;;;21033938;28;19924;-78
2024/03/12 21:52:06;;;;;;;;;;;6.40;99.90;;;;;;21051180;28;20382;-79
2024/03/12 22:02:06;;;;;;;;;;;6.40;99.90;;;;;;21047110;28;20196;-79
2024/03/12 22:12:08;;;;;;;;;;;6.40;99.90;;;;;;21035900;28;20005;-80
2024/03/12 22:22:09;;;;;;;;;;;6.40;99.90;;;;;;21031598;28;20019;-79
2024/03/12 22:32:13;;;;;;;;;;;6.40;99.90;;;;;;21033356;28;19914;-79
2024/03/12 22:42:14;;;;;;;;;;;6.50;99.90;;;;;;21010216;28;20421;-80
2024/03/12 22:52:17;;;;;;;;;;;6.30;99.90;;;;;;21034061;28;19912;-80
2024/03/12 23:02:19;;;;;;;;;;;6.40;99.90;;;;;;21062180;28;19916;-80
2024/03/12 23:12:19;;;;;;;;;;;6.40;99.90;;;;;;21088593;28;20406;-79
2024/03/12 23:22:20;;;;;;;;;;;6.40;99.90;;;;;;21100610;28;19992;-79
2024/03/12 23:32:20;;;;;;;;;;;6.30;99.90;;;;;;21074106;28;19913;-79
2024/03/12 23:42:21;;;;;;;;;;;6.20;99.90;;;;;;21098010;28;19916;-79
2024/03/12 23:52:22;;;;;;;;;;;6.20;99.90;;;;;;21079524;28;19920;-80
